Time;durP1;ratioP1;P1;durP2;ratioP2;P2;SDS_P1;SDS_P2;PMS_P1;PMS_P2;Temp;Humidity;BMP_temperature;BMP_pressure;BME280_temperature;BME280_humidity;BME280_pressure;Samples;Min_cycle;Max_cycle;Signal;HPM_P1;HPM_P2
2022/08/25 00:01:13;;;;;;;4.53;2.70;;;;;;;25.66;53.23;101578.63;4983402;28;20042;-72
2022/08/25 00:03:40;;;;;;;5.07;2.95;;;;;;;25.65;53.08;101576.97;4968118;28;20096;-71
2022/08/25 00:06:06;;;;;;;4.40;2.80;;;;;;;25.65;53.24;101580.47;4966970;28;20047;-70
2022/08/25 00:08:33;;;;;;;4.70;2.90;;;;;;;25.64;53.03;101578.81;4965147;28;20406;-71
2022/08/25 00:11:00;;;;;;;4.95;2.95;;;;;;;25.64;53.35;101576.16;4974266;28;20053;-70
2022/08/25 00:13:26;;;;;;;4.57;2.90;;;;;;;25.63;53.21;101579.81;4971845;28;20030;-69
2022/08/25 00:15:52;;;;;;;4.13;2.90;;;;;;;25.63;53.37;101582.47;4984050;28;20022;-70
2022/08/25 00:18:17;;;;;;;3.95;2.85;;;;;;;25.60;53.18;101574.78;4965949;28;20034;-70
2022/08/25 00:20:43;;;;;;;4.63;3.08;;;;;;;25.61;53.58;101568.44;4968462;28;20054;-72
2022/08/25 00:23:08;;;;;;;4.70;2.80;;;;;;;25.60;53.43;101568.59;4996087;28;20104;-71
2022/08/25 00:25:34;;;;;;;6.43;2.83;;;;;;;25.57;53.38;101564.41;4969324;28;20035;-72
2022/08/25 00:27:59;;;;;;;4.72;3.15;;;;;;;25.59;53.53;101570.41;4972069;28;20462;-75
2022/08/25 00:30:24;;;;;;;3.95;2.72;;;;;;;25.60;53.52;101573.94;4985597;28;20046;-71
2022/08/25 00:32:50;;;;;;;4.60;2.97;;;;;;;25.60;53.53;101577.44;4985011;28;20037;-72
2022/08/25 00:35:15;;;;;;;4.65;2.80;;;;;;;25.58;53.50;101582.09;4965322;28;20038;-71
2022/08/25 00:37:40;;;;;;;4.25;3.10;;;;;;;25.57;53.45;101580.41;4965445;28;20721;-73
2022/08/25 00:40:07;;;;;;;4.97;3.20;;;;;;;25.58;53.38;101575.91;4978592;28;20034;-75
2022/08/25 00:42:32;;;;;;;5.65;2.97;;;;;;;25.56;53.53;101580.56;4980236;28;20066;-70
2022/08/25 00:44:57;;;;;;;4.13;3.07;;;;;;;25.55;53.42;101577.09;4971431;28;20038;-72
2022/08/25 00:47:23;;;;;;;3.92;2.72;;;;;;;25.55;53.33;101576.22;4979771;28;20035;-71
2022/08/25 00:49:57;;;;;;;4.68;3.25;;;;;;;25.52;53.55;101575.56;4967099;28;20883;-71
2022/08/25 00:52:28;;;;;;;4.57;3.03;;;;;;;25.52;53.43;101566.72;4975429;28;20744;-71
2022/08/25 00:54:56;;;;;;;4.97;3.20;;;;;;;25.54;53.44;101583.41;4974371;28;20041;-73
2022/08/25 00:57:30;;;;;;;4.10;3.00;;;;;;;25.49;53.64;101569.69;4975088;28;20030;-71
2022/08/25 00:59:56;;;;;;;4.32;2.95;;;;;;;25.49;53.58;101570.53;4975449;28;20057;-72
2022/08/25 01:02:22;;;;;;;4.60;3.10;;;;;;;25.50;53.52;101579.34;4973740;28;20471;-70
2022/08/25 01:04:48;;;;;;;4.93;3.28;;;;;;;25.49;53.50;101575.88;4973467;28;20034;-70
2022/08/25 01:07:15;;;;;;;5.65;3.25;;;;;;;25.47;53.45;101575.19;4977622;28;20026;-71
2022/08/25 01:09:42;;;;;;;4.60;3.25;;;;;;;25.45;53.54;101565.66;4970591;28;20023;-69
2022/08/25 01:12:08;;;;;;;4.35;3.10;;;;;;;25.42;53.68;101560.63;4972317;28;20046;-71
2022/08/25 01:14:35;;;;;;;6.05;3.35;;;;;;;25.42;53.67;101564.16;4969993;28;20063;-70
2022/08/25 01:17:01;;;;;;;4.45;3.22;;;;;;;25.45;53.42;101568.31;4971098;28;20074;-69
2022/08/25 01:19:27;;;;;;;4.23;3.37;;;;;;;25.44;53.51;101564.00;4974122;28;20058;-72
2022/08/25 01:21:53;;;;;;;5.43;3.33;;;;;;;25.42;53.11;101564.16;4974895;28;20260;-72
2022/08/25 01:24:33;;;;;;;5.85;3.67;;;;;;;25.42;53.35;101560.63;4971939;28;20265;-70
2022/08/25 01:26:58;;;;;;;4.30;3.10;;;;;;;25.40;53.56;101558.13;4970469;28;20153;-73
2022/08/25 01:29:27;;;;;;;4.20;3.20;;;;;;;25.41;53.12;101562.47;4973526;28;20109;-69
2022/08/25 01:31:58;;;;;;;5.15;3.30;;;;;;;25.41;53.21;101562.47;4975738;28;20053;-71
2022/08/25 01:34:30;;;;;;;4.85;3.30;;;;;;;25.40;53.14;101568.78;4974912;28;20356;-70
2022/08/25 01:36:58;;;;;;;5.38;3.53;;;;;;;25.40;53.24;101562.63;4985457;28;20145;-71
2022/08/25 01:39:25;;;;;;;5.20;3.45;;;;;;;25.40;53.27;101565.28;4974179;28;20039;-70
2022/08/25 01:42:12;;;;;;;4.90;3.40;;;;;;;25.39;53.38;101564.47;4972474;28;20030;-71
2022/08/25 01:44:40;;;;;;;4.35;3.20;;;;;;;25.39;53.07;101561.78;4971393;28;20313;-72
2022/08/25 01:47:07;;;;;;;5.30;3.05;;;;;;;25.40;53.18;101562.63;4971072;28;20046;-71
2022/08/25 01:49:33;;;;;;;4.65;3.10;;;;;;;25.38;53.15;101561.94;4970791;28;20422;-70
2022/08/25 01:52:23;;;;;;;4.40;3.10;;;;;;;25.37;53.05;101569.09;4971302;28;20033;-70
2022/08/25 01:54:49;;;;;;;5.88;3.60;;;;;;;25.38;53.12;101565.44;4964182;28;20027;-71
2022/08/25 01:57:14;;;;;;;4.50;3.20;;;;;;;25.36;52.98;101564.78;4981916;28;20030;-72
2022/08/25 01:59:40;;;;;;;5.57;3.22;;;;;;;25.36;52.96;101570.09;4971930;28;20027;-71
2022/08/25 02:02:05;;;;;;;4.55;3.45;;;;;;;25.35;52.97;101571.91;4966144;28;20490;-74
2022/08/25 02:04:31;;;;;;;4.50;3.50;;;;;;;25.34;52.98;101564.06;4965618;28;20050;-70
2022/08/25 02:06:58;;;;;;;4.45;3.30;;;;;;;25.34;52.84;101572.06;4966661;28;20033;-73
2022/08/25 02:09:24;;;;;;;5.18;3.50;;;;;;;25.34;52.77;101562.25;4978163;28;20042;-71
2022/08/25 02:11:49;;;;;;;4.60;3.50;;;;;;;25.32;52.65;101566.88;4965629;28;20088;-71
2022/08/25 02:14:16;;;;;;;4.65;3.60;;;;;;;25.32;52.54;101556.22;4983944;28;20299;-71
2022/08/25 02:16:46;;;;;;;6.43;3.47;;;;;;;25.33;52.68;101551.75;4983336;28;20134;-72
2022/08/25 02:19:11;;;;;;;4.85;3.58;;;;;;;25.33;52.47;101554.41;4985055;28;20640;-71
2022/08/25 02:21:38;;;;;;;5.45;3.55;;;;;;;25.33;52.55;101552.56;4968055;28;20038;-71
2022/08/25 02:24:05;;;;;;;4.90;3.30;;;;;;;25.34;52.40;101558.72;4985338;28;20034;-72
2022/08/25 02:26:30;;;;;;;5.15;3.30;;;;;;;25.31;52.25;101551.03;4982114;28;20046;-71
2022/08/25 02:28:55;;;;;;;5.22;3.35;;;;;;;25.34;52.41;101556.06;4984719;28;20108;-70
2022/08/25 02:31:23;;;;;;;4.32;3.13;;;;;;;25.35;52.19;101557.75;4984746;28;20026;-71
2022/08/25 02:33:49;;;;;;;4.68;3.63;;;;;;;25.33;52.13;101552.56;4984688;28;20530;-72
2022/08/25 02:36:15;;;;;;;6.07;3.70;;;;;;;25.34;52.23;101550.72;4984616;28;20040;-72
2022/08/25 02:38:40;;;;;;;4.70;3.33;;;;;;;25.34;52.28;101554.25;4975655;28;20027;-71
2022/08/25 02:41:12;;;;;;;5.03;3.38;;;;;;;25.32;51.96;101548.22;4965810;28;20431;-73
2022/08/25 02:43:40;;;;;;;5.40;3.40;;;;;;;25.33;51.67;101554.41;4978652;28;20561;-70
2022/08/25 02:46:05;;;;;;;5.22;3.67;;;;;;;25.33;51.62;101555.25;4984677;28;20065;-71
2022/08/25 02:48:30;;;;;;;5.03;3.17;;;;;;;25.29;51.64;101548.56;4975661;28;20039;-71
2022/08/25 02:50:59;;;;;;;5.13;3.50;;;;;;;25.30;51.72;101547.53;4975202;28;20030;-70
2022/08/25 02:53:25;;;;;;;5.10;3.00;;;;;;;25.33;51.58;101549.06;4973032;28;21716;-71
2022/08/25 02:55:51;;;;;;;4.97;3.65;;;;;;;25.31;51.79;101543.91;4984081;28;20049;-72
2022/08/25 02:58:16;;;;;;;4.90;3.47;;;;;;;25.28;51.35;101540.72;4974102;28;20031;-71
2022/08/25 03:00:41;;;;;;;4.70;3.45;;;;;;;25.30;51.44;101539.53;4971596;28;20278;-73
2022/08/25 03:03:06;;;;;;;5.90;3.50;;;;;;;25.30;51.35;101542.22;4967154;28;20106;-72
2022/08/25 03:05:32;;;;;;;5.27;3.47;;;;;;;25.30;51.38;101544.06;4969205;28;20273;-71
2022/08/25 03:07:57;;;;;;;4.93;3.50;;;;;;;25.28;51.21;101533.53;4965024;28;20268;-71
2022/08/25 03:10:22;;;;;;;5.10;3.60;;;;;;;25.28;51.63;101530.03;4979771;28;20040;-70
2022/08/25 03:12:48;;;;;;;5.43;3.67;;;;;;;25.29;51.19;101535.22;4976434;28;20335;-71
2022/08/25 03:15:17;;;;;;;5.53;3.70;;;;;;;25.25;51.23;101522.31;4977626;28;20370;-73
2022/08/25 03:17:48;;;;;;;6.43;3.50;;;;;;;25.26;50.96;101521.31;4977971;28;20748;-70
2022/08/25 03:20:14;;;;;;;6.40;3.63;;;;;;;25.28;51.00;101530.88;4967456;28;20031;-72
2022/08/25 03:22:40;;;;;;;5.72;3.72;;;;;;;25.27;51.05;101521.16;4975054;28;20073;-72
2022/08/25 03:27:50;;;;;;;6.18;3.53;;;;;;;25.21;50.96;101521.75;4974307;28;20057;-73
2022/08/25 03:30:16;;;;;;;4.50;3.30;;;;;;;25.24;51.08;101520.63;4964923;28;20690;-70
2022/08/25 03:32:42;;;;;;;5.35;3.90;;;;;;;25.22;50.94;101517.28;4965993;28;20038;-70
2022/08/25 03:35:08;;;;;;;4.60;3.35;;;;;;;25.21;50.94;101516.44;4975456;28;20034;-70
2022/08/25 03:37:34;;;;;;;5.90;3.40;;;;;;;25.20;50.68;101522.78;4973305;28;20057;-72
2022/08/25 03:40:01;;;;;;;6.47;3.60;;;;;;;25.20;50.84;101514.78;4973458;28;20030;-71
2022/08/25 03:42:27;;;;;;;4.30;3.30;;;;;;;25.17;50.82;101513.25;4978184;28;20035;-69
2022/08/25 03:44:52;;;;;;;5.40;3.53;;;;;;;25.17;50.78;101512.41;4982858;28;20573;-69
2022/08/25 03:47:17;;;;;;;5.70;3.50;;;;;;;25.09;50.77;101501.69;4968654;28;20351;-72
2022/08/25 03:49:43;;;;;;;5.53;3.45;;;;;;;25.15;50.74;101509.03;4978032;28;20441;-70
2022/08/25 03:52:08;;;;;;;5.70;3.47;;;;;;;25.13;50.72;101514.56;4972016;28;20034;-70
2022/08/25 03:54:33;;;;;;;5.03;3.47;;;;;;;25.12;50.74;101506.72;4978394;28;20093;-72
2022/08/25 03:56:58;;;;;;;5.25;3.47;;;;;;;25.10;50.62;101500.69;4974519;28;20275;-70
2022/08/25 03:59:25;;;;;;;4.50;3.47;;;;;;;25.09;50.50;101499.84;4977723;28;20042;-70
2022/08/25 04:01:51;;;;;;;4.32;3.22;;;;;;;25.11;50.72;101495.19;4976065;28;20271;-71
2022/08/25 04:04:16;;;;;;;4.88;3.67;;;;;;;25.09;50.68;101497.19;4982134;28;20374;-71
2022/08/25 04:06:43;;;;;;;7.68;3.65;;;;;;;25.07;50.36;101485.84;4976593;28;20109;-71
2022/08/25 04:09:10;;;;;;;5.25;3.70;;;;;;;25.09;50.35;101489.19;4975982;28;20026;-70
2022/08/25 04:11:35;;;;;;;8.05;3.85;;;;;;;25.05;50.13;101484.31;4978349;28;20100;-70
2022/08/25 04:14:01;;;;;;;6.03;3.30;;;;;;;25.09;50.09;101491.03;4968902;28;20034;-69
2022/08/25 04:16:30;;;;;;;5.30;4.00;;;;;;;24.99;50.05;101478.63;4966133;28;20026;-69
2022/08/25 04:18:57;;;;;;;6.53;3.70;;;;;;;25.08;49.49;101494.69;4966698;28;20550;-71
2022/08/25 04:21:23;;;;;;;7.18;4.13;;;;;;;25.09;49.81;101501.69;4965575;28;20069;-72
2022/08/25 04:23:49;;;;;;;5.03;3.50;;;;;;;25.06;49.51;101497.50;4979415;28;20076;-70
2022/08/25 04:26:22;;;;;;;7.07;3.88;;;;;;;25.06;49.61;101499.34;4978959;28;20050;-72
2022/08/25 04:28:48;;;;;;;5.97;4.05;;;;;;;25.02;49.45;101492.63;4973552;28;20125;-72
2022/08/25 04:31:15;;;;;;;6.45;3.65;;;;;;;25.00;49.29;101487.44;4963537;28;20034;-71
2022/08/25 04:33:41;;;;;;;5.68;3.40;;;;;;;25.06;49.53;101492.16;4972331;28;20091;-70
2022/08/25 04:36:08;;;;;;;5.90;3.70;;;;;;;25.04;49.50;101478.16;4969490;28;20793;-73
2022/08/25 04:38:33;;;;;;;6.43;3.83;;;;;;;25.02;49.44;101474.78;4975251;28;20088;-70
2022/08/25 04:41:01;;;;;;;5.53;3.85;;;;;;;24.98;49.32;101465.44;4977899;28;20030;-69
2022/08/25 04:43:26;;;;;;;4.53;3.55;;;;;;;25.04;49.16;101477.31;4963199;28;20034;-70
2022/08/25 04:45:52;;;;;;;6.70;3.50;;;;;;;25.06;49.03;101478.81;4963100;28;20534;-72
2022/08/25 04:48:18;;;;;;;6.80;4.00;;;;;;;25.08;49.08;101474.16;4971595;28;20062;-70
2022/08/25 04:50:43;;;;;;;5.38;3.53;;;;;;;25.05;49.03;101471.81;4979665;28;20030;-70
2022/08/25 04:53:09;;;;;;;6.03;3.30;;;;;;;25.06;48.80;101473.50;4973689;28;20034;-73
2022/08/25 04:55:46;;;;;;;5.45;3.97;;;;;;;25.04;48.63;101466.63;4966932;28;20073;-71
2022/08/25 04:58:14;;;;;;;10.50;4.10;;;;;;;25.05;48.76;101476.31;4972271;28;20045;-72
2022/08/25 05:00:40;;;;;;;5.13;3.55;;;;;;;25.04;48.80;101470.16;4976437;28;20031;-71
2022/08/25 05:03:07;;;;;;;6.15;3.80;;;;;;;25.02;48.71;101468.63;4977447;28;20038;-72
2022/08/25 05:05:36;;;;;;;7.15;4.22;;;;;;;24.99;48.37;101470.63;4980630;28;20038;-70
2022/08/25 05:08:01;;;;;;;6.05;4.28;;;;;;;24.97;46.91;101475.25;4970835;28;20030;-71
2022/08/25 05:10:27;;;;;;;7.60;4.80;;;;;;;24.78;45.16;101483.44;4981023;28;20061;-73
2022/08/25 05:12:52;;;;;;;6.82;4.75;;;;;;;24.48;44.96;101488.13;4975233;28;20038;-73
2022/08/25 05:18:01;;;;;;;8.60;4.97;;;;;;;23.96;46.52;101494.06;4971104;28;20327;-73
2022/08/25 05:20:28;;;;;;;8.65;5.10;;;;;;;23.74;47.09;101489.91;4970861;28;20038;-74
2022/08/25 05:22:53;;;;;;;7.03;4.70;;;;;;;23.60;47.62;101503.69;4970596;28;20049;-74
2022/08/25 05:25:19;;;;;;;7.87;4.60;;;;;;;23.44;47.88;101502.47;4981274;28;20039;-75
2022/08/25 05:27:44;;;;;;;8.00;4.30;;;;;;;23.31;49.12;101504.59;4976372;28;20030;-74
2022/08/25 05:30:10;;;;;;;9.83;4.57;;;;;;;23.18;49.81;101508.41;4969263;28;20073;-75
2022/08/25 05:32:36;;;;;;;8.93;4.60;;;;;;;23.09;49.73;101509.25;4967049;28;20335;-75
2022/08/25 05:35:01;;;;;;;8.18;4.43;;;;;;;23.04;49.73;101507.97;4967819;28;20449;-74
2022/08/25 05:37:26;;;;;;;6.80;4.57;;;;;;;22.98;49.26;101502.22;4974640;28;20080;-75
2022/08/25 05:39:51;;;;;;;8.80;4.33;;;;;;;22.98;49.53;101504.06;4975772;28;20031;-74
2022/08/25 05:42:17;;;;;;;10.73;6.83;;;;;;;22.98;49.74;101504.06;4968812;28;20256;-75
2022/08/25 05:44:42;;;;;;;7.85;5.88;;;;;;;23.00;49.28;101507.41;4979029;28;20260;-74
2022/08/25 05:47:07;;;;;;;8.68;4.85;;;;;;;23.03;48.79;101512.44;4977689;28;20044;-73
2022/08/25 05:49:32;;;;;;;8.43;5.47;;;;;;;23.06;48.68;101506.00;4974482;28;20117;-74
2022/08/25 05:52:00;;;;;;;10.10;5.27;;;;;;;23.03;49.31;101507.13;4979137;28;20604;-75
2022/08/25 05:54:25;;;;;;;8.05;4.30;;;;;;;23.08;48.41;101512.03;4980056;28;20042;-73
2022/08/25 05:56:50;;;;;;;8.93;4.45;;;;;;;23.09;48.00;101511.91;4974826;28;21145;-75
2022/08/25 05:59:16;;;;;;;9.17;4.03;;;;;;;23.10;48.28;101510.09;4979003;28;20085;-74
2022/08/25 06:04:25;;;;;;;6.95;4.15;;;;;;;23.15;48.07;101524.63;4978171;28;20097;-74
2022/08/25 06:06:53;;;;;;;8.50;3.90;;;;;;;23.14;48.03;101524.78;4972361;28;20042;-74
2022/08/25 06:09:19;;;;;;;8.30;3.85;;;;;;;23.14;48.37;101519.47;4973413;28;20049;-70
2022/08/25 06:11:46;;;;;;;11.75;4.53;;;;;;;23.16;48.07;101521.00;4976093;28;20442;-71
2022/08/25 06:14:11;;;;;;;6.93;3.75;;;;;;;23.16;48.11;101520.16;4983583;28;20272;-75
2022/08/25 06:16:38;;;;;;;9.80;4.43;;;;;;;23.15;48.28;101515.84;4976961;28;20034;-73
2022/08/25 06:19:04;;;;;;;8.35;4.30;;;;;;;23.20;48.01;101518.06;4976953;28;20426;-74
2022/08/25 06:21:29;;;;;;;6.72;4.10;;;;;;;23.26;47.92;101515.66;4975691;28;20475;-74
2022/08/25 06:23:55;;;;;;;10.00;4.30;;;;;;;23.27;47.50;101519.16;4977355;28;20034;-73
2022/08/25 06:26:21;;;;;;;8.40;4.00;;;;;;;23.27;46.88;101509.34;4970804;28;20054;-73
2022/08/25 06:28:47;;;;;;;10.00;4.50;;;;;;;23.29;47.05;101504.75;4974154;28;20525;-75
2022/08/25 06:31:12;;;;;;;12.82;4.00;;;;;;;23.35;46.92;101513.97;4968115;28;20039;-74
2022/08/25 06:33:38;;;;;;;7.57;4.07;;;;;;;23.37;46.67;101512.03;4971038;28;20117;-73
2022/08/25 06:36:03;;;;;;;8.73;4.03;;;;;;;23.43;46.43;101518.56;4981488;28;20101;-71
2022/08/25 06:38:29;;;;;;;6.95;3.85;;;;;;;23.49;45.96;101516.16;4975435;28;20121;-73
2022/08/25 06:40:55;;;;;;;6.30;3.75;;;;;;;23.52;45.68;101518.53;4976710;28;20037;-73
2022/08/25 06:43:21;;;;;;;6.97;3.53;;;;;;;23.57;45.92;101520.78;4996310;28;20105;-73
2022/08/25 06:45:47;;;;;;;8.20;3.50;;;;;;;23.61;46.08;101513.38;4975831;28;20070;-73
2022/08/25 06:48:12;;;;;;;7.72;3.88;;;;;;;23.66;46.10;101522.56;4977626;28;20026;-72
2022/08/25 06:50:38;;;;;;;8.48;3.95;;;;;;;23.68;45.89;101515.28;4977442;28;20038;-71
2022/08/25 06:53:04;;;;;;;6.45;3.97;;;;;;;23.71;45.48;101516.81;4977258;28;20121;-72
2022/08/25 06:55:29;;;;;;;7.35;3.92;;;;;;;23.74;45.34;101513.88;4977388;28;20486;-74
2022/08/25 06:57:55;;;;;;;6.88;3.60;;;;;;;23.78;45.22;101514.41;4980436;28;20038;-73
2022/08/25 07:00:20;;;;;;;7.22;3.38;;;;;;;23.81;45.70;101509.63;4976593;28;20041;-71
2022/08/25 07:02:46;;;;;;;8.18;3.83;;;;;;;23.85;45.18;101507.56;4974294;28;20034;-69
2022/08/25 07:05:11;;;;;;;6.53;3.80;;;;;;;23.88;45.21;101516.09;4978383;28;20425;-72
2022/08/25 07:07:37;;;;;;;5.85;3.40;;;;;;;23.89;45.40;101503.59;4976604;28;20054;-72
2022/08/25 07:10:04;;;;;;;6.68;3.50;;;;;;;23.96;44.77;101506.50;4973923;28;20030;-72
2022/08/25 07:12:29;;;;;;;6.80;3.53;;;;;;;24.02;45.03;101501.44;4975134;28;20034;-73
2022/08/25 07:14:55;;;;;;;6.85;3.65;;;;;;;24.10;44.42;101500.72;4973938;28;20046;-72
2022/08/25 07:17:22;;;;;;;6.05;3.70;;;;;;;24.17;44.93;101503.63;4973523;28;20034;-72
2022/08/25 07:19:48;;;;;;;6.63;3.75;;;;;;;24.21;45.16;101497.00;4976840;28;20367;-73
2022/08/25 07:22:13;;;;;;;10.63;3.72;;;;;;;24.23;45.16;101492.38;4973664;28;20458;-72
2022/08/25 07:24:38;;;;;;;6.10;3.60;;;;;;;24.29;44.84;101498.91;4975101;28;20035;-70
2022/08/25 07:27:04;;;;;;;7.47;3.63;;;;;;;24.33;44.24;101500.28;4974086;28;20701;-71
2022/08/25 07:29:31;;;;;;;7.38;3.50;;;;;;;24.38;44.03;101504.16;4969926;28;20265;-70
2022/08/25 07:31:56;;;;;;;6.25;3.50;;;;;;;24.45;44.28;101499.09;4973510;28;20073;-72
2022/08/25 07:37:05;;;;;;;6.40;3.75;;;;;;;24.57;44.25;101500.56;4976724;28;20404;-71
2022/08/25 07:39:32;;;;;;;4.90;3.07;;;;;;;24.59;44.03;101495.94;4972414;28;20117;-69
2022/08/25 07:41:58;;;;;;;6.30;3.53;;;;;;;24.63;44.48;101499.97;4970861;28;20271;-79
2022/08/25 07:44:24;;;;;;;5.82;3.45;;;;;;;24.56;45.04;101498.91;4974637;28;20046;-74
2022/08/25 07:46:50;;;;;;;6.50;3.30;;;;;;;24.50;45.05;101498.63;4973691;28;20026;-72
2022/08/25 07:49:16;;;;;;;7.53;3.53;;;;;;;24.51;45.14;101500.31;4975889;28;20494;-74
2022/08/25 07:51:42;;;;;;;6.80;3.42;;;;;;;24.54;44.79;101492.84;4975910;28;20034;-74
2022/08/25 07:54:07;;;;;;;5.57;3.03;;;;;;;24.61;45.06;101491.28;4971270;28;20034;-74
2022/08/25 07:56:32;;;;;;;5.78;3.20;;;;;;;24.72;44.76;101492.91;4971030;28;20310;-74
2022/08/25 07:58:58;;;;;;;5.35;3.30;;;;;;;24.75;44.99;101479.25;4978015;28;20073;-74
2022/08/25 08:01:24;;;;;;;5.00;3.00;;;;;;;24.84;44.92;101496.16;4970795;28;20096;-73
2022/08/25 08:03:50;;;;;;;9.98;3.50;;;;;;;24.92;45.10;101495.38;4965241;28;20061;-72
2022/08/25 08:06:19;;;;;;;7.65;4.30;;;;;;;24.98;45.05;101492.94;4975790;28;20053;-78
2022/08/25 08:08:48;;;;;;;6.65;3.38;;;;;;;25.02;45.29;101485.44;4969851;28;20042;-80
2022/08/25 08:11:22;;;;;;;5.75;3.20;;;;;;;25.12;45.20;101490.72;4966880;28;20078;-78
2022/08/25 08:13:48;;;;;;;5.28;3.10;;;;;;;25.15;45.20;101485.91;4972293;28;20037;-76
2022/08/25 08:16:16;;;;;;;6.72;3.63;;;;;;;25.20;45.17;101484.56;4972306;28;20031;-77
2022/08/25 08:18:42;;;;;;;7.15;3.28;;;;;;;25.24;45.26;101486.78;4977105;28;20383;-73
2022/08/25 08:21:20;;;;;;;7.50;2.72;;;;;;;25.25;44.92;101476.97;4979452;28;20036;-74
2022/08/25 08:23:47;;;;;;;6.53;3.30;;;;;;;25.28;44.87;101485.50;4980563;28;20526;-77
2022/08/25 08:26:12;;;;;;;6.97;2.88;;;;;;;25.28;44.98;101479.34;4974295;28;20109;-76
2022/08/25 08:28:38;;;;;;;4.75;2.90;;;;;;;25.29;45.10;101489.00;4988584;28;20696;-74
2022/08/25 08:31:03;;;;;;;5.38;3.13;;;;;;;25.32;45.05;101484.19;4969733;28;20058;-75
2022/08/25 08:33:29;;;;;;;6.55;3.13;;;;;;;25.36;45.17;101487.41;4976823;28;20041;-82
2022/08/25 08:36:00;;;;;;;6.88;3.08;;;;;;;25.34;45.16;101484.03;4976562;28;20041;-79
2022/08/25 08:38:26;;;;;;;8.05;3.20;;;;;;;25.33;45.18;101487.72;4972659;28;20045;-76
2022/08/25 08:43:55;;;;;;;5.45;2.92;;;;;;;25.36;45.49;101474.06;4970024;28;20048;-75
2022/08/25 08:46:21;;;;;;;6.25;3.35;;;;;;;25.40;45.14;101479.91;4973273;28;20030;-73
2022/08/25 08:49:15;;;;;;;4.38;2.50;;;;;;;25.44;45.19;101478.63;4969808;28;20360;-74
2022/08/25 08:51:58;;;;;;;6.82;3.10;;;;;;;25.50;44.89;101477.97;4972417;28;20041;-73
2022/08/25 08:54:25;;;;;;;4.30;2.78;;;;;;;25.51;45.05;101476.97;4975460;28;20061;-74
2022/08/25 08:57:07;;;;;;;6.78;3.13;;;;;;;25.50;45.22;101473.47;4973796;28;20049;-70
2022/08/25 08:59:55;;;;;;;6.45;2.70;;;;;;;25.55;45.01;101480.16;4966336;28;20066;-70
2022/08/25 09:02:32;;;;;;;6.55;3.05;;;;;;;25.57;45.17;101479.00;4972947;28;20031;-70
2022/08/25 09:05:02;;;;;;;5.38;2.80;;;;;;;25.55;45.21;101470.34;4965649;28;20474;-70
2022/08/25 09:07:52;;;;;;;5.78;3.10;;;;;;;25.58;45.26;101482.50;4973289;28;20023;-71
2022/08/25 09:10:19;;;;;;;5.03;3.05;;;;;;;25.60;45.46;101478.69;4967741;28;20144;-69
2022/08/25 09:13:12;;;;;;;4.55;2.72;;;;;;;25.61;45.26;101479.53;4967188;28;20486;-72
2022/08/25 09:19:22;;;;;;;7.20;3.00;;;;;;;25.64;45.29;101481.88;4928827;28;20537;-71
2022/08/25 09:22:00;;;;;;;4.15;2.67;;;;;;;25.60;45.50;101475.19;4962208;28;20125;-70
2022/08/25 09:24:45;;;;;;;4.97;2.80;;;;;;;25.61;45.46;101474.19;4968113;28;20038;-71
2022/08/25 09:27:20;;;;;;;4.75;2.88;;;;;;;25.60;45.59;101473.34;4978677;28;20113;-70
2022/08/25 09:30:01;;;;;;;4.63;2.80;;;;;;;25.62;45.42;101473.19;4975457;28;20088;-71
2022/08/25 09:32:34;;;;;;;5.70;2.72;;;;;;;25.60;45.61;101469.88;4977251;28;20469;-73
2022/08/25 09:35:01;;;;;;;5.78;3.00;;;;;;;25.61;45.57;101477.72;4975282;28;20058;-71
2022/08/25 09:37:27;;;;;;;3.97;2.40;;;;;;;25.64;45.62;101481.88;4964256;28;20374;-72
2022/08/25 09:39:52;;;;;;;5.28;2.90;;;;;;;25.60;45.64;101468.03;4973679;28;20045;-71
2022/08/25 09:42:19;;;;;;;6.53;3.00;;;;;;;25.61;45.59;101469.72;4972812;28;21135;-72
2022/08/25 09:44:47;;;;;;;5.75;2.72;;;;;;;25.60;45.97;101465.34;4971572;28;20077;-70
2022/08/25 09:47:18;;;;;;;3.90;2.42;;;;;;;25.64;45.74;101471.19;4972599;28;20034;-74
2022/08/25 09:49:48;;;;;;;5.95;3.10;;;;;;;25.62;45.85;101465.19;4969502;28;20394;-72
2022/08/25 09:52:25;;;;;;;4.50;3.00;;;;;;;25.60;45.83;101467.19;4974180;28;20471;-70
2022/08/25 09:54:52;;;;;;;5.18;2.80;;;;;;;25.58;46.18;101451.34;4971879;28;20030;-72
2022/08/25 09:57:28;;;;;;;6.20;2.80;;;;;;;25.61;45.76;101453.69;4971881;28;20034;-71
2022/08/25 09:59:54;;;;;;;5.95;2.70;;;;;;;25.60;46.01;101448.50;4969037;28;20035;-71
2022/08/25 10:02:25;;;;;;;5.10;2.70;;;;;;;25.61;46.12;101442.16;4974321;28;20034;-71
2022/08/25 10:04:51;;;;;;;5.32;2.55;;;;;;;25.61;46.12;101439.50;4975429;28;20023;-71
2022/08/25 10:07:35;;;;;;;4.13;2.45;;;;;;;25.54;45.98;101431.28;4963366;28;20494;-77
2022/08/25 10:10:13;;;;;;;6.10;2.85;;;;;;;25.60;46.26;101436.00;4965020;28;20368;-72
2022/08/25 10:12:42;;;;;;;6.07;2.55;;;;;;;25.58;46.39;101429.13;4973364;28;20369;-71
2022/08/25 10:15:16;;;;;;;5.25;2.95;;;;;;;25.59;46.13;101436.97;4970867;28;20482;-72
2022/08/25 10:17:41;;;;;;;;;;;;;;;25.61;46.06;101434.16;4975117;28;20146;-72
2022/08/25 10:20:10;;;;;;;4.88;2.70;;;;;;;25.57;46.40;101430.16;4967270;28;20004;-80
2022/08/25 10:22:38;;;;;;;4.78;2.85;;;;;;;25.47;46.63;101428.44;4971729;28;20042;-75
2022/08/25 10:25:06;;;;;;;4.82;2.70;;;;;;;25.37;47.04;101422.38;4972426;28;20084;-77
2022/08/25 10:27:43;;;;;;;5.43;2.88;;;;;;;25.34;47.20;101425.34;4967995;28;20090;-78
2022/08/25 10:30:30;;;;;;;5.90;2.88;;;;;;;25.33;47.09;101418.34;4966966;28;20027;-72
2022/08/25 10:33:13;;;;;;;5.97;2.80;;;;;;;25.36;46.90;101410.03;4966173;28;20042;-72
2022/08/25 10:36:00;;;;;;;3.88;2.33;;;;;;;25.45;46.88;101410.91;4976334;28;20038;-72
2022/08/25 10:38:44;;;;;;;5.05;2.50;;;;;;;25.50;46.81;101406.78;4973664;28;20041;-74
2022/08/25 10:41:43;;;;;;;4.80;2.23;;;;;;;25.58;46.76;101402.44;4976836;28;20038;-75
2022/08/25 10:48:02;;;;;;;5.35;2.42;;;;;;;25.52;47.08;101391.44;4971711;28;20169;-82
2022/08/25 10:50:43;;;;;;;5.30;2.42;;;;;;;25.50;47.01;101390.75;4964713;28;20046;-80
2022/08/25 10:53:21;;;;;;;5.55;2.60;;;;;;;25.54;47.00;101393.94;4970790;28;20056;-81
2022/08/25 10:55:52;;;;;;;4.97;2.63;;;;;;;25.46;46.97;101378.72;4978302;28;20129;-83
2022/08/25 10:58:48;;;;;;;4.40;2.50;;;;;;;25.55;47.10;101384.09;4973721;28;20265;-80
2022/08/25 11:01:23;;;;;;;4.95;2.35;;;;;;;25.61;47.19;101388.78;4973883;28;20891;-79
2022/08/25 11:03:58;;;;;;;5.75;2.80;;;;;;;25.63;47.05;101379.63;4973073;28;20034;-83
2022/08/25 11:06:32;;;;;;;5.65;2.78;;;;;;;25.68;47.11;101379.16;4971583;28;20045;-75
2022/08/25 11:09:04;;;;;;;4.03;2.30;;;;;;;25.62;47.02;101371.78;4974740;28;20038;-81
2022/08/25 11:11:39;;;;;;;5.38;2.58;;;;;;;25.70;47.07;101388.66;4974326;28;20041;-78
2022/08/25 11:14:10;;;;;;;5.38;2.90;;;;;;;25.67;47.33;101367.63;4976032;28;20897;-80
2022/08/25 11:17:04;;;;;;;4.78;2.40;;;;;;;25.76;47.17;101373.00;4972836;28;20031;-80
2022/08/25 11:19:44;;;;;;;;;;;;;;;25.76;47.21;101363.16;4973968;28;20054;-82
2022/08/25 11:22:21;;;;;;;7.05;2.55;;;;;;;25.79;46.98;101357.47;4977428;28;19910;-78
2022/08/25 11:24:59;;;;;;;7.18;2.78;;;;;;;25.81;47.17;101360.81;4975385;28;20042;-78
2022/08/25 11:27:44;;;;;;;8.38;3.50;;;;;;;25.83;47.96;101355.31;4971257;28;20051;-70
2022/08/25 11:30:14;;;;;;;6.47;3.03;;;;;;;25.84;47.43;101349.00;4971311;28;20078;-68
2022/08/25 11:32:43;;;;;;;5.38;3.15;;;;;;;25.88;47.51;101351.16;4970710;28;20038;-68
2022/08/25 11:35:11;;;;;;;7.28;3.28;;;;;;;25.94;47.66;101356.84;4976476;28;20996;-68
2022/08/25 11:38:03;;;;;;;7.00;3.33;;;;;;;25.94;47.58;101346.16;4970055;28;20054;-69
2022/08/25 11:40:50;;;;;;;8.68;3.00;;;;;;;25.95;48.26;101348.66;4976226;28;20367;-72
2022/08/25 11:43:36;;;;;;;7.43;3.40;;;;;;;26.01;47.84;101353.38;4977331;28;20038;-69
2022/08/25 11:46:38;;;;;;;7.97;3.22;;;;;;;26.03;48.53;101355.91;4970193;28;20046;-69
2022/08/25 11:49:28;;;;;;;7.07;3.55;;;;;;;26.03;48.77;101350.56;4969646;28;20490;-69
2022/08/25 11:51:53;;;;;;;5.82;3.28;;;;;;;26.01;48.36;101348.06;4963555;28;20041;-68
2022/08/25 11:54:34;;;;;;;8.50;3.65;;;;;;;26.03;48.62;101356.72;4963578;28;20018;-69